Terminal Aerodrome Forecast
Issued by NWS Amarillo, TX

Home | Current Version | Previous Version | Text Only | Print | Product List | Glossary On
Versions: 1 2 3 4 5 6 7 8 9 10 11 12 13 14 15 16 17 18 19 20
000
FTUS44 KAMA 211700
TAFDHT
TAF
KDHT 211740Z 2118/2218 05013KT P6SM BKN020
     FM211900 07014KT P6SM VCTS SCT020 BKN060CB
     FM212300 12010KT P6SM BKN060
     FM221100 13008KT P6SM SCT020 BKN200=

USA.gov is the U.S. government's official web portal to all federal, state and local government web resources and services.